createdAt,value
2018-08-20T00:01:28.649Z,24.53
2018-08-20T00:03:56.354Z,26.30
2018-08-20T00:06:23.982Z,26.63
2018-08-20T00:08:51.274Z,22.87
2018-08-20T00:11:19.249Z,26.17
2018-08-20T00:13:46.806Z,23.10
2018-08-20T00:16:14.151Z,25.10
2018-08-20T00:18:42.016Z,24.40
2018-08-20T00:21:09.609Z,24.87
2018-08-20T00:23:36.911Z,26.50
2018-08-20T00:26:04.266Z,27.70
2018-08-20T00:28:32.196Z,24.10
2018-08-20T00:33:26.890Z,24.47
2018-08-20T00:35:54.231Z,24.63
2018-08-20T00:38:21.618Z,28.63
2018-08-20T00:40:49.603Z,25.17
2018-08-20T00:43:17.025Z,24.30
2018-08-20T00:45:45.242Z,24.67
2018-08-20T00:48:12.545Z,25.53
2018-08-20T00:50:40.450Z,28.17
2018-08-20T00:53:08.005Z,24.13
2018-08-20T00:55:35.580Z,25.70
2018-08-20T00:58:03.925Z,26.73
2018-08-20T01:00:31.864Z,25.60
2018-08-20T01:03:00.764Z,26.40
2018-08-20T01:05:30.294Z,26.87
2018-08-20T01:07:57.918Z,28.13
2018-08-20T01:10:29.673Z,24.03
2018-08-20T01:12:57.290Z,26.60
2018-08-20T01:15:25.071Z,25.17
2018-08-20T01:17:57.626Z,29.10
2018-08-20T01:20:25.884Z,26.47
2018-08-20T01:22:53.192Z,25.73
2018-08-20T01:25:20.499Z,27.67
2018-08-20T01:27:48.696Z,26.80
2018-08-20T01:30:16.404Z,28.17
2018-08-20T01:32:44.332Z,26.83
2018-08-20T01:35:18.731Z,24.90
2018-08-20T01:37:47.986Z,25.33
2018-08-20T01:40:15.275Z,29.13
2018-08-20T01:42:42.602Z,24.40
2018-08-20T01:45:09.934Z,29.43
2018-08-20T01:47:37.292Z,24.60
2018-08-20T01:50:05.567Z,28.10
2018-08-20T01:52:32.942Z,24.43
2018-08-20T01:55:00.263Z,28.90
2018-08-20T01:59:54.964Z,29.50
2018-08-20T02:02:22.381Z,25.37
2018-08-20T02:04:49.730Z,27.90
2018-08-20T02:07:17.650Z,25.20
2018-08-20T02:09:45.034Z,27.27
2018-08-20T02:12:12.486Z,31.97
2018-08-20T02:14:39.863Z,26.10
2018-08-20T02:17:07.256Z,30.67
2018-08-20T02:19:34.555Z,27.07
2018-08-20T02:22:05.833Z,24.77
2018-08-20T02:24:33.146Z,28.30
2018-08-20T02:27:01.053Z,27.63
2018-08-20T02:29:29.046Z,24.47
2018-08-20T02:31:57.000Z,26.20
2018-08-20T02:34:24.434Z,26.17
2018-08-20T02:36:51.934Z,27.37
2018-08-20T02:39:23.298Z,29.53
2018-08-20T02:41:50.658Z,25.30
2018-08-20T02:44:18.072Z,25.07
2018-08-20T02:46:52.529Z,28.00
2018-08-20T02:49:24.062Z,24.03
2018-08-20T02:51:51.551Z,24.50
2018-08-20T02:54:19.424Z,26.97
2018-08-20T02:56:46.759Z,24.43
2018-08-20T02:59:14.899Z,25.53
2018-08-20T03:01:42.283Z,26.77
2018-08-20T03:04:09.695Z,24.30
2018-08-20T03:06:37.830Z,27.50
2018-08-20T03:09:07.195Z,27.00
2018-08-20T03:11:34.646Z,26.03
2018-08-20T03:14:03.537Z,26.70
2018-08-20T03:16:31.856Z,28.53
2018-08-20T03:18:59.150Z,25.10
2018-08-20T03:21:27.204Z,27.23
2018-08-20T03:23:54.631Z,26.30
2018-08-20T03:26:22.055Z,24.47
2018-08-20T03:31:21.090Z,25.80
2018-08-20T03:33:49.125Z,27.00
2018-08-20T03:36:17.420Z,23.83
2018-08-20T03:38:44.817Z,24.80
2018-08-20T03:41:12.250Z,27.97
2018-08-20T03:43:40.264Z,25.37
2018-08-20T03:46:07.759Z,28.80
2018-08-20T03:48:36.180Z,25.10
2018-08-20T03:51:03.849Z,26.40
2018-08-20T03:53:31.814Z,26.73
2018-08-20T03:56:00.966Z,26.80
2018-08-20T03:58:28.436Z,25.97
2018-08-20T04:00:55.818Z,27.73
2018-08-20T04:03:23.129Z,27.60
2018-08-20T04:05:52.389Z,25.87
2018-08-20T04:08:19.902Z,25.67
2018-08-20T04:10:48.230Z,26.80
2018-08-20T04:13:15.605Z,24.30
2018-08-20T04:15:43.205Z,26.20
2018-08-20T04:18:11.578Z,27.80
2018-08-20T04:20:40.298Z,25.50
2018-08-20T04:23:07.710Z,27.17
2018-08-20T04:25:35.668Z,25.50
2018-08-20T04:28:03.203Z,28.33
2018-08-20T04:30:30.560Z,26.43
2018-08-20T04:33:02.359Z,26.97
2018-08-20T04:35:29.702Z,29.23
2018-08-20T04:37:57.113Z,24.87
2018-08-20T04:40:28.827Z,27.87
2018-08-20T04:42:56.694Z,27.53
2018-08-20T04:45:24.776Z,29.00
2018-08-20T04:50:24.452Z,25.60
2018-08-20T04:52:56.335Z,23.60
2018-08-20T04:55:24.096Z,28.27
2018-08-20T04:58:00.983Z,28.10
2018-08-20T05:00:29.156Z,28.25
2018-08-20T05:02:56.473Z,25.13
2018-08-20T05:05:24.058Z,42.13
2018-08-20T05:07:52.664Z,32.60
2018-08-20T05:10:20.118Z,28.70
2018-08-20T05:12:47.493Z,27.90
2018-08-20T05:15:14.822Z,26.50
2018-08-20T05:17:42.202Z,28.27
2018-08-20T05:20:10.310Z,24.90
2018-08-20T05:22:37.613Z,28.40
2018-08-20T05:25:05.022Z,26.00
2018-08-20T05:27:32.367Z,29.97
2018-08-20T05:29:59.653Z,32.80
2018-08-20T05:32:27.747Z,27.20
2018-08-20T05:34:55.130Z,30.27
2018-08-20T05:37:23.152Z,25.00
2018-08-20T05:39:50.529Z,27.03
2018-08-20T05:42:18.090Z,25.60
2018-08-20T05:44:45.532Z,27.00
2018-08-20T05:47:12.866Z,28.30
2018-08-20T05:49:40.184Z,30.40
2018-08-20T05:52:07.523Z,28.83
2018-08-20T05:54:34.896Z,28.70
2018-08-20T05:57:02.663Z,31.17
2018-08-20T05:59:30.035Z,31.37
2018-08-20T06:01:57.434Z,25.83
2018-08-20T06:04:24.767Z,29.37
2018-08-20T06:06:52.142Z,34.40
2018-08-20T06:09:19.646Z,27.07
2018-08-20T06:11:51.344Z,30.07
2018-08-20T06:14:19.078Z,25.17
2018-08-20T06:16:46.468Z,26.57
2018-08-20T06:19:14.186Z,28.63
2018-08-20T06:21:41.658Z,25.77
2018-08-20T06:24:09.052Z,28.17
2018-08-20T06:26:36.366Z,28.33
2018-08-20T06:29:03.679Z,28.43
2018-08-20T06:31:31.064Z,30.77
2018-08-20T06:33:58.468Z,28.93
2018-08-20T06:36:26.178Z,28.73
2018-08-20T06:38:53.494Z,32.27
2018-08-20T06:41:20.815Z,28.33
2018-08-20T06:43:48.176Z,28.30
2018-08-20T06:46:15.482Z,29.57
2018-08-20T06:48:42.817Z,33.43
2018-08-20T06:51:10.384Z,28.50
2018-08-20T06:53:37.752Z,29.40
2018-08-20T06:56:05.035Z,30.07
2018-08-20T06:58:32.287Z,28.37
2018-08-20T07:00:59.596Z,26.20
2018-08-20T07:03:27.306Z,27.13
2018-08-20T07:05:54.611Z,30.07
2018-08-20T07:08:21.887Z,28.33
2018-08-20T07:10:49.201Z,29.60
2018-08-20T07:13:22.170Z,27.50
2018-08-20T07:15:49.543Z,28.17
2018-08-20T07:18:16.898Z,31.30
2018-08-20T07:20:44.150Z,29.27
2018-08-20T07:23:11.438Z,30.23
2018-08-20T07:25:38.769Z,30.13
2018-08-20T07:28:06.055Z,28.73
2018-08-20T07:30:33.348Z,28.97
2018-08-20T07:33:00.698Z,29.87
2018-08-20T07:35:28.040Z,30.97
2018-08-20T07:37:55.351Z,31.10
2018-08-20T07:40:22.663Z,30.33
2018-08-20T07:42:49.957Z,29.30
2018-08-20T07:45:17.232Z,29.83
2018-08-20T07:47:44.574Z,32.50
2018-08-20T07:50:11.899Z,28.70
2018-08-20T07:52:39.192Z,32.53
2018-08-20T07:55:06.500Z,30.37
2018-08-20T07:57:33.798Z,34.03
2018-08-20T08:00:01.102Z,29.37
2018-08-20T08:02:28.409Z,34.07
2018-08-20T08:04:55.715Z,32.00
2018-08-20T08:07:23.130Z,31.57
2018-08-20T08:09:50.494Z,31.93
2018-08-20T08:12:17.827Z,30.77
2018-08-20T08:14:45.148Z,32.77
2018-08-20T08:17:12.439Z,31.60
2018-08-20T08:19:39.801Z,33.40
2018-08-20T08:22:07.068Z,33.80
2018-08-20T08:24:34.558Z,35.67
2018-08-20T08:27:01.919Z,34.60
2018-08-20T08:29:29.199Z,37.90
2018-08-20T08:31:56.482Z,37.37
2018-08-20T08:34:23.878Z,39.60
2018-08-20T08:36:51.183Z,42.90
2018-08-20T08:39:18.521Z,39.27
2018-08-20T08:41:45.839Z,41.43
2018-08-20T08:44:13.163Z,38.87
2018-08-20T08:46:40.513Z,38.10
2018-08-20T08:49:07.794Z,39.40
2018-08-20T08:51:35.306Z,42.37
2018-08-20T08:54:02.637Z,37.30
2018-08-20T08:56:30.021Z,41.13
2018-08-20T08:58:57.331Z,35.87
2018-08-20T09:01:24.662Z,38.13
2018-08-20T09:03:52.035Z,40.90
2018-08-20T09:06:19.441Z,38.33
2018-08-20T09:08:46.773Z,40.27
2018-08-20T09:11:14.153Z,38.87
2018-08-20T09:13:41.516Z,36.33
2018-08-20T09:16:09.603Z,38.00
2018-08-20T09:18:37.165Z,36.47
2018-08-20T09:21:04.509Z,39.37
2018-08-20T09:23:31.965Z,41.53
2018-08-20T09:25:59.328Z,39.30
2018-08-20T09:28:26.575Z,40.90
2018-08-20T09:30:53.941Z,38.30
2018-08-20T09:33:21.236Z,39.33
2018-08-20T09:35:48.555Z,37.70
2018-08-20T09:38:16.735Z,41.07
2018-08-20T09:40:44.075Z,43.27
2018-08-20T09:43:11.436Z,37.10
2018-08-20T09:45:38.927Z,38.10
2018-08-20T09:48:06.285Z,37.13
2018-08-20T09:50:33.690Z,36.10
2018-08-20T09:53:01.015Z,35.50
2018-08-20T09:55:28.314Z,36.67
2018-08-20T09:57:55.693Z,39.53
2018-08-20T10:00:29.164Z,39.10
2018-08-20T10:02:56.594Z,39.33
2018-08-20T10:05:24.056Z,37.20
2018-08-20T10:07:53.022Z,34.97
2018-08-20T10:10:20.436Z,37.47
2018-08-20T10:12:48.411Z,38.40
2018-08-20T10:15:17.212Z,40.77
2018-08-20T10:17:44.864Z,35.20
2018-08-20T10:20:13.457Z,36.20
2018-08-20T10:22:41.077Z,41.47
2018-08-20T10:25:14.703Z,38.30
2018-08-20T10:27:43.032Z,35.07
2018-08-20T10:30:10.739Z,37.73
2018-08-20T10:32:38.438Z,35.80
2018-08-20T10:35:06.247Z,33.57
2018-08-20T10:37:33.604Z,34.70
2018-08-20T10:40:01.692Z,34.97
2018-08-20T10:42:29.802Z,32.40
2018-08-20T10:45:03.038Z,30.27
2018-08-20T10:47:34.992Z,32.80
2018-08-20T10:50:02.746Z,33.37
2018-08-20T10:52:31.281Z,31.80
2018-08-20T10:55:03.567Z,30.00
2018-08-20T10:57:30.926Z,32.57
2018-08-20T10:59:58.662Z,34.73
2018-08-20T11:02:26.556Z,34.17
2018-08-20T11:04:55.723Z,30.50
2018-08-20T11:07:23.511Z,34.43
2018-08-20T11:09:50.813Z,27.67
2018-08-20T11:12:18.617Z,30.90
2018-08-20T11:14:46.234Z,30.33
2018-08-20T11:17:13.673Z,32.20
2018-08-20T11:19:41.531Z,30.57
2018-08-20T11:22:08.892Z,32.90
2018-08-20T11:24:36.590Z,34.03
2018-08-20T11:27:03.964Z,34.17
2018-08-20T11:29:33.112Z,29.30
2018-08-20T11:32:05.450Z,32.57
2018-08-20T11:34:33.457Z,28.13
2018-08-20T11:37:01.792Z,32.87
2018-08-20T11:39:33.739Z,30.23
2018-08-20T11:42:02.443Z,30.23
2018-08-20T11:44:29.857Z,28.63
2018-08-20T11:46:57.381Z,33.23
2018-08-20T11:49:24.765Z,29.53
2018-08-20T11:51:52.368Z,30.80
2018-08-20T11:54:20.122Z,31.57
2018-08-20T11:56:47.688Z,35.97
2018-08-20T11:59:19.068Z,32.20
2018-08-20T12:01:46.877Z,37.37
2018-08-20T12:04:14.797Z,35.20
2018-08-20T12:06:42.220Z,36.40
2018-08-20T12:09:11.254Z,30.73
2018-08-20T12:11:40.975Z,31.60
2018-08-20T12:14:08.673Z,31.00
2018-08-20T12:16:40.277Z,31.07
2018-08-20T12:19:12.886Z,31.63
2018-08-20T12:21:40.233Z,34.07
2018-08-20T12:24:07.557Z,32.67
2018-08-20T12:26:34.921Z,36.10
2018-08-20T12:29:02.329Z,33.60
2018-08-20T12:31:29.620Z,33.97
2018-08-20T12:33:56.931Z,34.00
2018-08-20T12:36:24.222Z,35.93
2018-08-20T12:38:52.117Z,34.47
2018-08-20T12:41:19.432Z,32.47
2018-08-20T12:43:46.766Z,34.37
2018-08-20T12:46:18.316Z,30.87
2018-08-20T12:48:45.988Z,33.83
2018-08-20T12:51:13.339Z,30.10
2018-08-20T12:53:40.645Z,33.03
2018-08-20T12:56:08.203Z,32.80
2018-08-20T12:58:35.489Z,33.47
2018-08-20T13:01:02.897Z,36.13
2018-08-20T13:03:30.127Z,31.40
2018-08-20T13:05:57.473Z,36.77
2018-08-20T13:08:24.816Z,29.47
2018-08-20T13:10:52.174Z,28.63
2018-08-20T13:13:19.494Z,31.73
2018-08-20T13:15:46.874Z,27.87
2018-08-20T13:18:14.109Z,24.37
2018-08-20T13:20:41.398Z,26.80
2018-08-20T13:23:08.817Z,22.50
2018-08-20T13:25:36.143Z,24.80
2018-08-20T13:28:03.510Z,24.27
2018-08-20T13:30:30.855Z,26.10
2018-08-20T13:32:58.193Z,24.67
2018-08-20T13:35:25.528Z,23.27
2018-08-20T13:37:52.836Z,28.60
2018-08-20T13:40:20.170Z,23.07
2018-08-20T13:42:49.637Z,23.97
2018-08-20T13:45:16.922Z,23.03
2018-08-20T13:47:44.958Z,22.07
2018-08-20T13:50:14.783Z,24.20
2018-08-20T13:52:43.401Z,20.33
2018-08-20T13:55:10.809Z,22.43
2018-08-20T13:57:48.916Z,21.40
2018-08-20T14:00:17.669Z,20.03
2018-08-20T14:02:44.924Z,20.33
2018-08-20T14:05:12.583Z,21.10
2018-08-20T14:07:39.897Z,21.13
2018-08-20T14:10:08.204Z,21.67
2018-08-20T14:12:36.871Z,20.10
2018-08-20T14:15:04.755Z,20.73
2018-08-20T14:17:32.043Z,23.10
2018-08-20T14:19:59.376Z,20.33
2018-08-20T14:22:26.854Z,19.63
2018-08-20T14:24:54.198Z,21.00
2018-08-20T14:27:21.566Z,20.70
2018-08-20T14:29:48.874Z,20.13
2018-08-20T14:32:16.170Z,20.97
2018-08-20T14:34:43.425Z,22.63
2018-08-20T14:37:10.784Z,18.70
2018-08-20T14:39:38.198Z,21.63
2018-08-20T14:42:06.273Z,19.00
2018-08-20T14:44:33.522Z,18.93
2018-08-20T14:47:00.809Z,19.80
2018-08-20T14:49:28.110Z,19.97
2018-08-20T14:51:56.082Z,20.37
2018-08-20T14:54:23.451Z,21.50
2018-08-20T14:56:50.732Z,19.80
2018-08-20T14:59:18.029Z,24.87
2018-08-20T15:01:45.476Z,20.97
2018-08-20T15:04:12.789Z,20.50
2018-08-20T15:06:46.857Z,22.37
2018-08-20T15:09:14.241Z,20.33
2018-08-20T15:11:41.500Z,22.33
2018-08-20T15:14:08.774Z,22.40
2018-08-20T15:16:36.731Z,23.20
2018-08-20T15:19:04.331Z,20.30
2018-08-20T15:21:31.596Z,21.00
2018-08-20T15:23:58.899Z,21.27
2018-08-20T15:26:26.226Z,22.20
2018-08-20T15:28:53.619Z,22.00
2018-08-20T15:31:20.918Z,21.87
2018-08-20T15:33:48.218Z,21.27
2018-08-20T15:36:15.517Z,19.10
2018-08-20T15:38:42.827Z,20.80
2018-08-20T15:41:10.166Z,19.77
2018-08-20T15:43:37.430Z,19.77
2018-08-20T15:46:04.777Z,20.80
2018-08-20T15:48:32.640Z,28.13
2018-08-20T15:50:59.962Z,21.83
2018-08-20T15:53:28.188Z,20.07
2018-08-20T15:55:55.563Z,19.93
2018-08-20T15:58:22.898Z,20.47
2018-08-20T16:00:50.207Z,20.83
2018-08-20T16:03:17.486Z,20.80
2018-08-20T16:05:44.876Z,19.70
2018-08-20T16:08:12.194Z,18.90
2018-08-20T16:10:39.494Z,19.10
2018-08-20T16:13:07.166Z,18.70
2018-08-20T16:15:34.424Z,18.90
2018-08-20T16:18:01.734Z,17.43
2018-08-20T16:20:29.038Z,18.90
2018-08-20T16:22:56.332Z,19.13
2018-08-20T16:25:23.781Z,17.87
2018-08-20T16:27:51.093Z,17.33
2018-08-20T16:30:18.356Z,17.30
2018-08-20T16:32:45.670Z,19.80
2018-08-20T16:35:13.289Z,20.93
2018-08-20T16:37:41.405Z,17.30
2018-08-20T16:40:08.683Z,17.43
2018-08-20T16:42:36.002Z,18.03
2018-08-20T16:45:03.328Z,16.93
2018-08-20T16:47:30.694Z,16.27
2018-08-20T16:49:58.035Z,17.10
2018-08-20T16:52:26.063Z,16.10
2018-08-20T16:54:53.463Z,16.20
2018-08-20T16:57:20.748Z,16.70
2018-08-20T16:59:48.046Z,15.63
2018-08-20T17:02:20.679Z,15.90
2018-08-20T17:04:48.011Z,16.93
2018-08-20T17:07:15.355Z,15.97
2018-08-20T17:09:42.673Z,16.00
2018-08-20T17:12:09.969Z,15.97
2018-08-20T17:14:37.279Z,16.03
2018-08-20T17:17:04.878Z,17.40
2018-08-20T17:19:32.185Z,15.93
2018-08-20T17:21:59.551Z,15.80
2018-08-20T17:24:32.588Z,15.47
2018-08-20T17:27:02.320Z,15.53
2018-08-20T17:29:31.015Z,15.47
2018-08-20T17:31:58.967Z,16.00
2018-08-20T17:34:26.268Z,15.90
2018-08-20T17:36:54.076Z,15.57
2018-08-20T17:39:22.345Z,16.17
2018-08-20T17:41:50.323Z,15.17
2018-08-20T17:44:18.842Z,15.40
2018-08-20T17:46:46.873Z,15.37
2018-08-20T17:49:15.331Z,15.77
2018-08-20T17:51:49.791Z,15.80
2018-08-20T17:54:17.780Z,15.57
2018-08-20T17:56:45.125Z,15.47
2018-08-20T17:59:12.949Z,16.40
2018-08-20T18:01:40.276Z,15.30
2018-08-20T18:04:08.294Z,15.13
2018-08-20T18:06:43.097Z,16.00
2018-08-20T18:09:10.412Z,15.83
2018-08-20T18:11:42.216Z,15.50
2018-08-20T18:14:14.684Z,15.67
2018-08-20T18:16:42.085Z,15.33
2018-08-20T18:19:09.492Z,16.03
2018-08-20T18:21:36.913Z,15.47
2018-08-20T18:24:04.303Z,15.07
2018-08-20T18:26:49.084Z,15.63
2018-08-20T18:29:16.515Z,15.17
2018-08-20T18:31:44.001Z,17.20
2018-08-20T18:36:38.291Z,16.90
2018-08-20T18:39:07.555Z,15.30
2018-08-20T18:42:16.964Z,15.20
2018-08-20T18:44:45.167Z,16.10
2018-08-20T18:47:14.140Z,14.33
2018-08-20T18:49:47.536Z,14.50
2018-08-20T18:52:15.386Z,14.50
2018-08-20T18:54:45.431Z,14.90
2018-08-20T18:57:21.786Z,14.90
2018-08-20T18:59:49.295Z,14.50
2018-08-20T19:02:25.063Z,14.50
2018-08-20T19:04:52.436Z,14.40
2018-08-20T19:07:19.911Z,16.17
2018-08-20T19:09:47.905Z,16.33
2018-08-20T19:12:15.980Z,16.53
2018-08-20T19:14:43.405Z,14.63
2018-08-20T19:17:16.268Z,14.50
2018-08-20T19:19:48.213Z,14.27
2018-08-20T19:22:21.065Z,14.60
2018-08-20T19:24:48.554Z,15.20
2018-08-20T19:27:16.684Z,14.77
2018-08-20T19:29:44.191Z,14.33
2018-08-20T19:32:11.737Z,14.80
2018-08-20T19:34:39.993Z,14.77
2018-08-20T19:37:08.029Z,14.83
2018-08-20T19:39:35.727Z,15.03
2018-08-20T19:42:03.533Z,16.33
2018-08-20T19:44:31.796Z,15.33
2018-08-20T19:46:59.786Z,15.03
2018-08-20T19:49:27.297Z,15.23
2018-08-20T19:51:54.826Z,15.30
2018-08-20T19:54:23.247Z,15.00
2018-08-20T19:59:29.119Z,16.50
2018-08-20T20:01:56.885Z,14.70
2018-08-20T20:04:24.439Z,17.27
2018-08-20T20:06:51.860Z,15.60
2018-08-20T20:09:19.729Z,15.27
2018-08-20T20:11:48.152Z,16.17
2018-08-20T20:14:15.674Z,16.00
2018-08-20T20:16:48.572Z,14.63
2018-08-20T20:19:15.991Z,14.87
2018-08-20T20:21:43.922Z,15.53
2018-08-20T20:24:12.001Z,15.20
2018-08-20T20:26:40.022Z,16.00
2018-08-20T20:29:08.503Z,15.23
2018-08-20T20:31:42.756Z,15.33
2018-08-20T20:34:10.478Z,16.20
2018-08-20T20:36:37.925Z,15.63
2018-08-20T20:39:08.867Z,15.30
2018-08-20T20:41:36.830Z,15.33
2018-08-20T20:44:04.376Z,15.57
2018-08-20T20:46:31.921Z,15.47
2018-08-20T20:48:59.310Z,16.20
2018-08-20T20:51:26.798Z,15.37
2018-08-20T20:53:55.090Z,16.40
2018-08-20T20:56:23.187Z,16.60
2018-08-20T20:58:57.768Z,17.73
2018-08-20T21:01:25.396Z,15.53
2018-08-20T21:03:52.824Z,16.37
2018-08-20T21:06:21.051Z,15.90
2018-08-20T21:11:16.742Z,16.07
2018-08-20T21:13:48.713Z,18.60
2018-08-20T21:16:18.717Z,15.70
2018-08-20T21:18:50.944Z,15.87
2018-08-20T21:21:18.999Z,15.50
2018-08-20T21:23:46.795Z,15.77
2018-08-20T21:26:14.203Z,17.27
2018-08-20T21:28:50.389Z,16.07
2018-08-20T21:31:19.182Z,16.83
2018-08-20T21:33:48.890Z,16.13
2018-08-20T21:36:16.766Z,16.10
2018-08-20T21:38:44.447Z,16.10
2018-08-20T21:41:12.797Z,19.23
2018-08-20T21:43:45.092Z,16.60
2018-08-20T21:46:12.965Z,15.87
2018-08-20T21:48:41.907Z,19.70
2018-08-20T21:51:15.051Z,16.80
2018-08-20T21:53:42.396Z,16.27
2018-08-20T21:56:10.927Z,16.47
2018-08-20T21:58:40.668Z,15.90
2018-08-20T22:01:15.364Z,16.20
2018-08-20T22:03:43.328Z,15.90
2018-08-20T22:08:37.796Z,15.90
2018-08-20T22:11:05.947Z,15.97
2018-08-20T22:13:33.707Z,17.30
2018-08-20T22:16:16.969Z,16.00
2018-08-20T22:18:46.552Z,16.30
2018-08-20T22:21:17.389Z,16.87
2018-08-20T22:23:45.605Z,16.00
2018-08-20T22:26:13.868Z,15.93
2018-08-20T22:28:41.702Z,17.27
2018-08-20T22:31:09.098Z,16.87
2018-08-20T22:33:41.917Z,15.75
2018-08-20T22:36:12.332Z,17.07
2018-08-20T22:38:50.623Z,16.57
2018-08-20T22:41:18.338Z,16.73
2018-08-20T22:43:45.681Z,17.20
2018-08-20T22:46:12.967Z,16.30
2018-08-20T22:48:40.570Z,16.10
2018-08-20T22:51:11.759Z,15.57
2018-08-20T22:53:40.033Z,15.80
2018-08-20T22:56:09.689Z,17.27
2018-08-20T22:58:37.141Z,18.90
2018-08-20T23:01:05.263Z,17.10
2018-08-20T23:03:33.290Z,16.77
2018-08-20T23:06:00.684Z,16.80
2018-08-20T23:08:29.053Z,15.70
2018-08-20T23:10:56.451Z,15.90
2018-08-20T23:13:24.423Z,16.67
2018-08-20T23:15:51.991Z,17.63
2018-08-20T23:18:19.398Z,16.03
2018-08-20T23:20:46.821Z,17.17
2018-08-20T23:23:15.864Z,18.40
2018-08-20T23:25:43.643Z,16.83
2018-08-20T23:28:11.111Z,16.30
2018-08-20T23:30:39.647Z,16.30
2018-08-20T23:33:07.262Z,16.55
2018-08-20T23:35:35.008Z,16.80
2018-08-20T23:38:03.078Z,18.80
2018-08-20T23:42:57.757Z,17.05
2018-08-20T23:45:25.058Z,17.80
2018-08-20T23:47:57.356Z,17.42
2018-08-20T23:50:25.025Z,16.67
2018-08-20T23:52:56.730Z,17.93
2018-08-20T23:55:24.411Z,16.70
2018-08-20T23:57:52.603Z,16.80
